Albertville, Wisconsin
Current Conditions -  °F | °C
As of 11:35 AM on Friday 19 Dec 2014 (Local Time) from KLUM Reporting Station
Overcast Overcast  
Wind Chill: -7°   Ceiling: 5000
Heat Index: -3°   Visibility: 10mi
Dew Point: -6°   Wind: 7mph
Humidity: 76%   Direction: 150°SSE
Pressure: 30.25"   Gusts: NA
Location:  45.0099°N, 91.7075°W
Report Text: KLUM 191735Z AUTO 15006KT 10SM SCT015 SCT028 OVC050 M03/M06 A3025 RMK AO2 T10271064
Loading
Personal Weather Stations






























Interactive Weather Map New forecast layout! Learn more

10-Day Weather Forecast

Advertisements
Track Severe Weather on mobile